Terminal Aerodrome Forecast
Issued by NWS Portland, OR

Home | Current Version | Previous Version | Text Only | Print | Product List | Glossary On
Versions: 1 2 3 4 5 6 7 8 9 10 11 12 13 14 15 16 17 18 19 20 21 22 23 24 25 26 27 28 29 30
073
FTUS46 KPQR 311140
TAFTTD
TAF
KTTD 311140Z 3112/0112 09005KT P6SM OVC060
     FM311800 11004KT P6SM -SHRA SCT027 OVC040
     FM312300 26004KT P6SM VCSH BKN027 OVC050
     FM010200 VRB03KT P6SM OVC050=

USA.gov is the U.S. government's official web portal to all federal, state and local government web resources and services.